Terminal Aerodrome Forecast
Issued by NWS Shreveport, LA

Home | Current Version | Previous Version | Text Only | Print | Product List | Glossary On
Versions: 1 2 3 4 5 6 7 8 9 10 11 12 13 14 15 16
332
FTUS44 KSHV 231129
TAFGGG
TAF
KGGG 231129Z 2312/2412 VRB03KT P6SM SCT140 BKN250
     FM231600 VRB04KT P6SM SCT035 SCT150 BKN250
     FM231800 VRB05KT P6SM VCTS BKN050CB BKN250
     FM240100 VRB03KT P6SM SCT050 BKN250=

USA.gov is the U.S. government's official web portal to all federal, state and local government web resources and services.